createdAt,value
2017-07-02T00:00:15.718Z,8.70
2017-07-02T00:01:16.374Z,8.78
2017-07-02T00:02:16.991Z,8.74
2017-07-02T00:03:17.600Z,8.73
2017-07-02T00:04:18.210Z,8.71
2017-07-02T00:05:18.825Z,8.71
2017-07-02T00:06:19.489Z,8.70
2017-07-02T00:07:20.108Z,8.60
2017-07-02T00:08:20.721Z,8.64
2017-07-02T00:09:21.329Z,8.60
2017-07-02T00:10:21.973Z,8.63
2017-07-02T00:11:22.638Z,8.64
2017-07-02T00:12:23.249Z,8.73
2017-07-02T00:13:23.862Z,8.74
2017-07-02T00:14:24.506Z,8.67
2017-07-02T00:15:25.150Z,8.73
2017-07-02T00:16:25.814Z,8.64
2017-07-02T00:17:26.424Z,8.70
2017-07-02T00:18:27.036Z,8.61
2017-07-02T00:19:27.649Z,8.61
2017-07-02T00:20:28.259Z,8.61
2017-07-02T00:21:28.923Z,8.69
2017-07-02T00:22:29.569Z,8.71
2017-07-02T00:23:30.165Z,8.69
2017-07-02T00:24:30.777Z,8.74
2017-07-02T00:25:31.390Z,8.70
2017-07-02T00:26:32.080Z,8.79
2017-07-02T00:27:32.681Z,8.71
2017-07-02T00:28:33.288Z,8.73
2017-07-02T00:29:33.899Z,8.74
2017-07-02T00:30:34.512Z,8.71
2017-07-02T00:31:35.173Z,8.70
2017-07-02T00:32:35.792Z,8.71
2017-07-02T00:33:36.439Z,8.71
2017-07-02T00:34:37.091Z,8.69
2017-07-02T00:35:37.739Z,8.73
2017-07-02T00:36:38.425Z,8.73
2017-07-02T00:37:39.028Z,8.84
2017-07-02T00:38:39.644Z,8.84
2017-07-02T00:39:40.252Z,8.85
2017-07-02T00:40:40.863Z,8.89
2017-07-02T00:41:41.530Z,8.89
2017-07-02T00:42:42.175Z,8.88
2017-07-02T00:43:42.786Z,8.91
2017-07-02T00:44:43.402Z,8.99
2017-07-02T00:45:44.011Z,8.84
2017-07-02T00:46:44.699Z,8.97
2017-07-02T00:47:45.297Z,8.99
2017-07-02T00:48:45.909Z,8.95
2017-07-02T00:49:46.521Z,8.94
2017-07-02T00:50:47.130Z,8.97
2017-07-02T00:51:47.792Z,8.89
2017-07-02T00:52:48.437Z,8.99
2017-07-02T00:53:49.033Z,8.94
2017-07-02T00:54:49.677Z,8.87
2017-07-02T00:55:50.289Z,8.88
2017-07-02T00:56:50.975Z,8.84
2017-07-02T00:57:51.574Z,8.78
2017-07-02T00:58:52.185Z,8.81
2017-07-02T00:59:52.831Z,8.89
2017-07-02T01:00:53.440Z,8.84
2017-07-02T01:01:54.128Z,8.92
2017-07-02T01:02:54.728Z,8.92
2017-07-02T01:03:55.347Z,8.92
2017-07-02T01:04:55.957Z,8.91
2017-07-02T01:05:56.569Z,8.88
2017-07-02T01:06:57.269Z,8.88
2017-07-02T01:07:57.879Z,8.71
2017-07-02T01:08:58.488Z,8.73
2017-07-02T01:09:59.105Z,8.60
2017-07-02T01:10:59.720Z,8.64
2017-07-02T01:12:00.380Z,8.60
2017-07-02T01:13:00.991Z,8.41
2017-07-02T01:14:01.609Z,8.36
2017-07-02T01:15:02.260Z,8.31
2017-07-02T01:16:02.911Z,8.41
2017-07-02T01:17:03.573Z,8.28
2017-07-02T01:18:04.185Z,8.41
2017-07-02T01:19:04.823Z,8.34
2017-07-02T01:20:05.426Z,8.41
2017-07-02T01:21:06.034Z,8.37
2017-07-02T01:22:06.697Z,8.31
2017-07-02T01:23:07.309Z,8.38
2017-07-02T01:24:07.919Z,8.36
2017-07-02T01:25:08.532Z,8.34
2017-07-02T01:26:09.176Z,8.45
2017-07-02T01:27:09.839Z,8.49
2017-07-02T01:28:10.449Z,8.38
2017-07-02T01:29:11.062Z,8.48
2017-07-02T01:30:11.675Z,8.52
2017-07-02T01:31:12.287Z,8.48
2017-07-02T01:32:12.977Z,8.45
2017-07-02T01:33:13.623Z,8.49
2017-07-02T01:34:14.236Z,8.45
2017-07-02T01:35:14.849Z,8.48
2017-07-02T01:36:15.460Z,8.36
2017-07-02T01:37:16.121Z,8.37
2017-07-02T01:38:16.767Z,8.48
2017-07-02T01:39:17.438Z,8.38
2017-07-02T01:40:18.034Z,8.38
2017-07-02T01:41:18.644Z,8.37
2017-07-02T01:42:19.339Z,8.34
2017-07-02T01:43:19.978Z,8.38
2017-07-02T01:44:20.576Z,8.36
2017-07-02T01:45:21.190Z,8.44
2017-07-02T01:46:21.826Z,8.45
2017-07-02T01:47:22.523Z,8.52
2017-07-02T01:48:23.162Z,8.58
2017-07-02T01:49:23.760Z,8.60
2017-07-02T01:50:24.372Z,8.58
2017-07-02T01:51:25.017Z,8.55
2017-07-02T01:52:25.679Z,8.48
2017-07-02T01:53:26.291Z,8.61
2017-07-02T01:54:26.902Z,8.58
2017-07-02T01:55:27.515Z,8.61
2017-07-02T01:56:28.126Z,8.64
2017-07-02T01:57:28.787Z,8.67
2017-07-02T01:58:29.401Z,8.67
2017-07-02T01:59:30.018Z,8.56
2017-07-02T02:00:30.633Z,8.56
2017-07-02T02:01:31.242Z,8.63
2017-07-02T02:02:31.904Z,8.64
2017-07-02T02:03:32.551Z,8.61
2017-07-02T02:04:33.162Z,8.69
2017-07-02T02:05:33.778Z,8.63
2017-07-02T02:06:34.424Z,8.69
2017-07-02T02:07:35.086Z,8.71
2017-07-02T02:08:35.698Z,8.70
2017-07-02T02:09:36.335Z,8.74
2017-07-02T02:10:36.960Z,8.71
2017-07-02T02:11:37.558Z,8.69
2017-07-02T02:12:38.226Z,8.67
2017-07-02T02:13:38.834Z,8.67
2017-07-02T02:14:39.446Z,8.67
2017-07-02T02:15:40.057Z,8.69
2017-07-02T02:16:40.667Z,8.64
2017-07-02T02:17:41.329Z,8.64
2017-07-02T02:18:41.941Z,8.70
2017-07-02T02:19:42.584Z,8.67
2017-07-02T02:20:43.178Z,8.64
2017-07-02T02:21:43.790Z,8.64
2017-07-02T02:22:44.458Z,8.66
2017-07-02T02:23:45.067Z,8.64
2017-07-02T02:24:45.678Z,8.64
2017-07-02T02:25:46.290Z,8.58
2017-07-02T02:26:46.901Z,8.41
2017-07-02T02:27:47.562Z,8.51
2017-07-02T02:28:48.201Z,8.45
2017-07-02T02:29:48.800Z,8.45
2017-07-02T02:30:49.412Z,8.44
2017-07-02T02:31:50.023Z,8.48
2017-07-02T02:32:50.684Z,8.45
2017-07-02T02:33:51.298Z,8.49
2017-07-02T02:34:51.911Z,8.45
2017-07-02T02:35:52.529Z,8.36
2017-07-02T02:36:53.144Z,8.33
2017-07-02T02:37:53.798Z,8.38
2017-07-02T02:38:54.444Z,8.36
2017-07-02T02:39:55.055Z,8.34
2017-07-02T02:40:55.728Z,8.38
2017-07-02T02:41:56.352Z,8.38
2017-07-02T02:42:57.001Z,8.36
2017-07-02T02:43:57.611Z,8.38
2017-07-02T02:44:58.224Z,8.44
2017-07-02T02:45:58.836Z,8.46
2017-07-02T02:46:59.480Z,8.46
2017-07-02T02:48:00.126Z,8.63
2017-07-02T02:49:00.736Z,8.55
2017-07-02T02:50:01.375Z,8.51
2017-07-02T02:51:01.974Z,8.58
2017-07-02T02:52:02.585Z,8.56
2017-07-02T02:53:03.248Z,8.58
2017-07-02T02:54:03.859Z,8.63
2017-07-02T02:55:04.471Z,8.63
2017-07-02T02:56:05.084Z,8.58
2017-07-02T02:57:05.696Z,8.55
2017-07-02T02:58:06.362Z,8.53
2017-07-02T02:59:07.008Z,8.63
2017-07-02T03:00:07.621Z,8.60
2017-07-02T03:01:08.232Z,8.66
2017-07-02T03:02:08.842Z,8.69
2017-07-02T03:03:09.503Z,8.70
2017-07-02T03:04:10.116Z,8.63
2017-07-02T03:05:10.726Z,8.70
2017-07-02T03:06:11.338Z,8.66
2017-07-02T03:07:11.974Z,8.69
2017-07-02T03:08:12.624Z,8.70
2017-07-02T03:09:13.237Z,8.73
2017-07-02T03:10:13.849Z,8.74
2017-07-02T03:11:14.521Z,8.73
2017-07-02T03:12:15.119Z,8.78
2017-07-02T03:13:15.781Z,8.76
2017-07-02T03:14:16.394Z,8.81
2017-07-02T03:15:17.009Z,8.73
2017-07-02T03:16:17.620Z,8.73
2017-07-02T03:17:18.256Z,8.87
2017-07-02T03:18:18.905Z,8.74
2017-07-02T03:19:19.543Z,8.85
2017-07-02T03:20:20.143Z,8.66
2017-07-02T03:21:20.754Z,8.70
2017-07-02T03:22:21.371Z,8.81
2017-07-02T03:23:22.067Z,8.71
2017-07-02T03:24:22.681Z,8.74
2017-07-02T03:25:23.292Z,8.73
2017-07-02T03:26:23.904Z,8.73
2017-07-02T03:27:24.515Z,8.71
2017-07-02T03:28:25.181Z,8.70
2017-07-02T03:29:25.791Z,8.67
2017-07-02T03:30:26.402Z,8.70
2017-07-02T03:31:27.014Z,8.70
2017-07-02T03:32:27.627Z,8.63
2017-07-02T03:33:28.295Z,8.64
2017-07-02T03:34:28.911Z,8.70
2017-07-02T03:35:29.520Z,8.56
2017-07-02T03:36:30.157Z,8.70
2017-07-02T03:37:30.754Z,8.56
2017-07-02T03:38:31.422Z,8.60
2017-07-02T03:39:32.030Z,8.58
2017-07-02T03:40:32.642Z,8.66
2017-07-02T03:41:33.259Z,8.61
2017-07-02T03:42:33.868Z,8.60
2017-07-02T03:43:34.561Z,8.61
2017-07-02T03:44:35.156Z,8.56
2017-07-02T03:45:35.800Z,8.55
2017-07-02T03:46:36.412Z,8.48
2017-07-02T03:47:37.057Z,8.45
2017-07-02T03:48:37.717Z,8.45
2017-07-02T03:49:38.330Z,8.38
2017-07-02T03:50:38.942Z,8.36
2017-07-02T03:51:39.587Z,8.33
2017-07-02T03:52:40.183Z,8.45
2017-07-02T03:53:40.844Z,8.37
2017-07-02T03:54:41.457Z,8.37
2017-07-02T03:55:42.071Z,8.33
2017-07-02T03:56:42.681Z,8.28
2017-07-02T03:57:43.320Z,8.28
2017-07-02T03:58:43.994Z,8.36
2017-07-02T03:59:44.598Z,8.19
2017-07-02T04:00:45.206Z,8.15
2017-07-02T04:01:45.819Z,8.16
2017-07-02T04:02:46.462Z,8.15
2017-07-02T04:03:47.149Z,8.13
2017-07-02T04:04:47.752Z,8.10
2017-07-02T04:05:48.362Z,8.13
2017-07-02T04:06:48.973Z,8.10
2017-07-02T04:07:49.583Z,7.95
2017-07-02T04:08:50.250Z,7.95
2017-07-02T04:09:50.860Z,7.93
2017-07-02T04:10:51.478Z,8.05
2017-07-02T04:11:52.090Z,8.08
2017-07-02T04:12:52.706Z,8.00
2017-07-02T04:13:53.366Z,8.09
2017-07-02T04:14:53.977Z,8.00
2017-07-02T04:15:54.591Z,7.98
2017-07-02T04:16:55.199Z,8.03
2017-07-02T04:17:55.810Z,8.05
2017-07-02T04:18:56.506Z,8.05
2017-07-02T04:19:57.118Z,8.06
2017-07-02T04:20:57.730Z,8.00
2017-07-02T04:21:58.341Z,8.06
2017-07-02T04:22:58.955Z,8.08
2017-07-02T04:23:59.619Z,8.03
2017-07-02T04:25:00.255Z,8.03
2017-07-02T04:26:00.901Z,8.06
2017-07-02T04:27:01.514Z,8.00
2017-07-02T04:28:02.159Z,8.08
2017-07-02T04:29:02.836Z,8.05
2017-07-02T04:30:03.432Z,8.06
2017-07-02T04:31:04.081Z,8.08
2017-07-02T04:32:04.695Z,8.00
2017-07-02T04:33:05.307Z,8.03
2017-07-02T04:34:05.997Z,8.06
2017-07-02T04:35:06.595Z,8.08
2017-07-02T04:36:07.207Z,7.97
2017-07-02T04:37:07.819Z,7.90
2017-07-02T04:38:08.430Z,7.83
2017-07-02T04:39:09.097Z,7.93
2017-07-02T04:40:09.709Z,7.91
2017-07-02T04:41:10.321Z,7.82
2017-07-02T04:42:10.932Z,7.90
2017-07-02T04:43:11.544Z,7.85
2017-07-02T04:44:12.212Z,7.90
2017-07-02T04:45:12.827Z,7.80
2017-07-02T04:46:13.442Z,7.85
2017-07-02T04:47:14.087Z,7.90
2017-07-02T04:48:14.699Z,7.88
2017-07-02T04:49:15.367Z,7.97
2017-07-02T04:50:15.975Z,7.97
2017-07-02T04:51:16.616Z,7.97
2017-07-02T04:52:17.214Z,8.05
2017-07-02T04:53:17.825Z,8.05
2017-07-02T04:54:18.487Z,8.08
2017-07-02T04:55:19.132Z,8.13
2017-07-02T04:56:19.728Z,8.10
2017-07-02T04:57:20.339Z,8.26
2017-07-02T04:58:20.951Z,8.10
2017-07-02T04:59:21.614Z,8.24
2017-07-02T05:00:22.227Z,8.23
2017-07-02T05:01:22.838Z,8.13
2017-07-02T05:02:23.484Z,8.03
2017-07-02T05:03:24.164Z,7.98
2017-07-02T05:04:24.809Z,7.95
2017-07-02T05:05:25.463Z,7.93
2017-07-02T05:06:26.079Z,7.98
2017-07-02T05:07:26.687Z,7.90
2017-07-02T05:08:27.299Z,7.85
2017-07-02T05:09:27.962Z,7.80
2017-07-02T05:10:28.573Z,7.93
2017-07-02T05:11:29.185Z,7.88
2017-07-02T05:12:29.799Z,7.88
2017-07-02T05:13:30.445Z,7.85
2017-07-02T05:14:31.108Z,7.87
2017-07-02T05:15:31.723Z,7.95
2017-07-02T05:16:32.335Z,8.05
2017-07-02T05:17:32.947Z,8.10
2017-07-02T05:18:33.592Z,8.08
2017-07-02T05:19:34.256Z,8.06
2017-07-02T05:20:34.893Z,8.06
2017-07-02T05:21:35.495Z,8.12
2017-07-02T05:22:36.131Z,8.08
2017-07-02T05:23:36.732Z,8.13
2017-07-02T05:24:37.430Z,8.18
2017-07-02T05:25:38.068Z,8.20
2017-07-02T05:26:38.689Z,8.20
2017-07-02T05:27:39.291Z,8.28
2017-07-02T05:28:39.930Z,8.31
2017-07-02T05:29:40.578Z,8.31
2017-07-02T05:30:41.191Z,8.33
2017-07-02T05:31:41.804Z,8.33
2017-07-02T05:32:42.441Z,8.37
2017-07-02T05:33:43.041Z,8.37
2017-07-02T05:34:43.702Z,8.34
2017-07-02T05:35:44.321Z,8.37
2017-07-02T05:36:44.970Z,8.41
2017-07-02T05:37:45.581Z,8.45
2017-07-02T05:38:46.195Z,8.41
2017-07-02T05:39:46.893Z,8.44
2017-07-02T05:40:47.511Z,8.36
2017-07-02T05:41:48.124Z,8.34
2017-07-02T05:42:48.737Z,8.37
2017-07-02T05:43:49.355Z,8.52
2017-07-02T05:44:50.015Z,8.46
2017-07-02T05:45:50.628Z,8.44
2017-07-02T05:46:51.280Z,8.45
2017-07-02T05:47:51.893Z,8.31
2017-07-02T05:48:52.504Z,8.38
2017-07-02T05:49:53.197Z,8.41
2017-07-02T05:50:53.822Z,8.41
2017-07-02T05:51:54.423Z,8.41
2017-07-02T05:52:55.039Z,8.38
2017-07-02T05:53:55.653Z,8.42
2017-07-02T05:54:56.311Z,8.37
2017-07-02T05:55:56.925Z,8.49
2017-07-02T05:56:57.537Z,8.44
2017-07-02T05:57:58.150Z,8.48
2017-07-02T05:58:58.764Z,8.45
2017-07-02T05:59:59.429Z,8.44
2017-07-02T06:01:00.039Z,8.36
2017-07-02T06:02:00.660Z,8.37
2017-07-02T06:03:01.268Z,8.41
2017-07-02T06:04:01.888Z,8.45
2017-07-02T06:05:02.547Z,8.38
2017-07-02T06:06:03.201Z,8.36
2017-07-02T06:07:03.813Z,8.28
2017-07-02T06:08:04.425Z,8.33
2017-07-02T06:09:05.061Z,8.30
2017-07-02T06:10:05.710Z,8.38
2017-07-02T06:11:06.324Z,8.37
2017-07-02T06:12:06.969Z,8.38
2017-07-02T06:13:07.567Z,8.38
2017-07-02T06:14:08.213Z,8.44
2017-07-02T06:15:08.825Z,8.38
2017-07-02T06:16:09.437Z,8.30
2017-07-02T06:17:10.111Z,8.42
2017-07-02T06:18:10.735Z,8.36
2017-07-02T06:19:11.334Z,8.27
2017-07-02T06:20:12.028Z,8.30
2017-07-02T06:21:12.624Z,8.36
2017-07-02T06:22:13.235Z,8.31
2017-07-02T06:23:13.847Z,8.31
2017-07-02T06:24:14.459Z,8.37
2017-07-02T06:25:15.156Z,8.34
2017-07-02T06:26:15.769Z,8.34
2017-07-02T06:27:16.388Z,8.34
2017-07-02T06:28:16.997Z,8.36
2017-07-02T06:29:17.642Z,8.38
2017-07-02T06:30:18.305Z,8.36
2017-07-02T06:31:18.917Z,8.38
2017-07-02T06:32:19.530Z,8.46
2017-07-02T06:33:20.141Z,8.49
2017-07-02T06:34:20.755Z,8.41
2017-07-02T06:35:21.418Z,8.48
2017-07-02T06:36:22.036Z,8.49
2017-07-02T06:37:22.648Z,8.51
2017-07-02T06:38:23.265Z,8.41
2017-07-02T06:39:23.875Z,8.41
2017-07-02T06:40:24.573Z,8.37
2017-07-02T06:41:25.210Z,8.37
2017-07-02T06:42:25.809Z,8.44
2017-07-02T06:43:26.420Z,8.42
2017-07-02T06:44:27.034Z,8.37
2017-07-02T06:45:27.699Z,8.45
2017-07-02T06:46:28.312Z,8.51
2017-07-02T06:47:28.925Z,8.55
2017-07-02T06:48:29.536Z,8.63
2017-07-02T06:49:30.150Z,8.63
2017-07-02T06:50:30.813Z,8.70
2017-07-02T06:51:31.463Z,8.74
2017-07-02T06:52:32.071Z,8.84
2017-07-02T06:53:32.685Z,8.87
2017-07-02T06:54:33.298Z,8.87
2017-07-02T06:55:33.959Z,8.91
2017-07-02T06:56:34.574Z,8.95
2017-07-02T06:57:35.191Z,8.99
2017-07-02T06:58:35.801Z,8.92
2017-07-02T06:59:36.440Z,9.00
2017-07-02T07:00:37.088Z,8.88
2017-07-02T07:01:37.702Z,9.03
2017-07-02T07:02:38.313Z,8.91
2017-07-02T07:03:38.927Z,8.87
2017-07-02T07:04:39.539Z,8.95
2017-07-02T07:05:40.202Z,8.85
2017-07-02T07:06:40.816Z,8.84
2017-07-02T07:07:41.434Z,8.76
2017-07-02T07:08:42.044Z,8.74
2017-07-02T07:09:42.658Z,8.71
2017-07-02T07:10:43.320Z,8.71
2017-07-02T07:11:43.936Z,8.73
2017-07-02T07:12:44.549Z,8.70
2017-07-02T07:13:45.161Z,8.78
2017-07-02T07:14:45.772Z,8.71
2017-07-02T07:15:46.437Z,8.82
2017-07-02T07:16:47.049Z,8.87
2017-07-02T07:17:47.663Z,8.89
2017-07-02T07:18:48.279Z,9.02
2017-07-02T07:19:48.931Z,9.00
2017-07-02T07:20:49.593Z,8.94
2017-07-02T07:21:50.207Z,9.03
2017-07-02T07:22:50.847Z,9.04
2017-07-02T07:23:51.448Z,9.08
2017-07-02T07:24:52.096Z,9.03
2017-07-02T07:25:52.761Z,9.06
2017-07-02T07:26:53.409Z,9.14
2017-07-02T07:27:54.024Z,9.04
2017-07-02T07:28:54.638Z,8.95
2017-07-02T07:29:55.491Z,8.95
2017-07-02T07:30:56.155Z,8.94
2017-07-02T07:31:56.772Z,8.91
2017-07-02T07:32:57.397Z,9.00
2017-07-02T07:33:58.066Z,8.92
2017-07-02T07:34:58.669Z,8.99
2017-07-02T07:35:59.372Z,8.99
2017-07-02T07:36:59.991Z,8.94
2017-07-02T07:38:00.603Z,8.89
2017-07-02T07:39:01.252Z,8.88
2017-07-02T07:40:01.872Z,8.94
2017-07-02T07:41:02.536Z,8.85
2017-07-02T07:42:03.149Z,8.95
2017-07-02T07:43:03.764Z,9.08
2017-07-02T07:44:04.377Z,9.06
2017-07-02T07:45:04.993Z,9.10
2017-07-02T07:46:05.658Z,9.02
2017-07-02T07:47:06.272Z,9.06
2017-07-02T07:48:06.888Z,8.99
2017-07-02T07:49:07.527Z,9.04
2017-07-02T07:50:08.130Z,9.03
2017-07-02T07:51:08.794Z,9.10
2017-07-02T07:52:09.408Z,9.14
2017-07-02T07:53:10.023Z,9.18
2017-07-02T07:54:10.667Z,9.22
2017-07-02T07:55:11.301Z,9.23
2017-07-02T07:56:11.982Z,9.28
2017-07-02T07:57:12.581Z,9.32
2017-07-02T07:58:13.197Z,9.32
2017-07-02T07:59:13.813Z,9.34
2017-07-02T08:00:14.429Z,9.28
2017-07-02T08:01:15.094Z,9.32
2017-07-02T08:02:15.710Z,9.26
2017-07-02T08:03:16.325Z,9.25
2017-07-02T08:04:16.939Z,9.25
2017-07-02T08:05:17.589Z,9.23
2017-07-02T08:06:18.237Z,9.32
2017-07-02T08:07:18.852Z,9.37
2017-07-02T08:08:19.467Z,9.43
2017-07-02T08:09:20.113Z,9.44
2017-07-02T08:10:20.712Z,9.56
2017-07-02T08:11:21.378Z,9.55
2017-07-02T08:12:21.994Z,9.46
2017-07-02T08:13:22.643Z,9.44
2017-07-02T08:14:23.260Z,9.44
2017-07-02T08:15:23.875Z,9.43
2017-07-02T08:16:24.544Z,9.32
2017-07-02T08:17:25.160Z,9.32
2017-07-02T08:18:25.775Z,9.32
2017-07-02T08:19:26.387Z,9.37
2017-07-02T08:20:27.003Z,9.40
2017-07-02T08:21:27.667Z,9.43
2017-07-02T08:22:28.284Z,9.43
2017-07-02T08:23:28.899Z,9.41
2017-07-02T08:24:29.513Z,9.40
2017-07-02T08:25:30.130Z,9.43
2017-07-02T08:26:30.802Z,9.43
2017-07-02T08:27:31.412Z,9.50
2017-07-02T08:28:32.026Z,9.51
2017-07-02T08:29:32.642Z,9.46
2017-07-02T08:30:33.257Z,9.61
2017-07-02T08:31:33.921Z,9.59
2017-07-02T08:32:34.537Z,9.76
2017-07-02T08:33:35.151Z,9.76
2017-07-02T08:34:35.765Z,9.79
2017-07-02T08:35:36.381Z,9.80
2017-07-02T08:36:37.045Z,9.74
2017-07-02T08:37:37.660Z,9.79
2017-07-02T08:38:38.274Z,9.91
2017-07-02T08:39:38.893Z,9.87
2017-07-02T08:40:39.540Z,9.98
2017-07-02T08:41:40.206Z,9.91
2017-07-02T08:42:40.855Z,9.97
2017-07-02T08:43:41.471Z,9.99
2017-07-02T08:44:42.087Z,10.04
2017-07-02T08:45:42.702Z,9.97
2017-07-02T08:46:43.367Z,9.99
2017-07-02T08:47:44.024Z,9.98
2017-07-02T08:48:44.640Z,9.95
2017-07-02T08:49:45.255Z,9.97
2017-07-02T08:50:45.875Z,9.98
2017-07-02T08:51:46.538Z,10.05
2017-07-02T08:52:47.161Z,10.09
2017-07-02T08:53:47.775Z,10.16
2017-07-02T08:54:48.391Z,10.17
2017-07-02T08:55:49.011Z,10.31
2017-07-02T08:56:49.682Z,10.25
2017-07-02T08:57:50.296Z,10.38
2017-07-02T08:58:50.938Z,10.35
2017-07-02T08:59:51.541Z,10.34
2017-07-02T09:00:52.159Z,10.41
2017-07-02T09:01:52.825Z,10.46
2017-07-02T09:02:53.449Z,10.57
2017-07-02T09:03:54.068Z,10.61
2017-07-02T09:04:54.682Z,10.64
2017-07-02T09:05:55.297Z,10.72
2017-07-02T09:06:55.964Z,10.72
2017-07-02T09:07:56.582Z,10.79
2017-07-02T09:08:57.198Z,10.87
2017-07-02T09:09:57.816Z,10.86
2017-07-02T09:10:58.432Z,10.79
2017-07-02T09:11:59.100Z,10.94
2017-07-02T09:12:59.716Z,10.92
2017-07-02T09:14:00.332Z,10.78
2017-07-02T09:15:00.982Z,10.89
2017-07-02T09:16:01.584Z,10.90
2017-07-02T09:17:02.275Z,10.90
2017-07-02T09:18:02.880Z,10.96
2017-07-02T09:19:03.523Z,10.90
2017-07-02T09:20:04.128Z,10.87
2017-07-02T09:21:04.776Z,10.81
2017-07-02T09:22:05.423Z,10.75
2017-07-02T09:23:06.043Z,10.79
2017-07-02T09:24:06.660Z,10.82
2017-07-02T09:25:07.276Z,10.81
2017-07-02T09:26:07.896Z,10.72
2017-07-02T09:27:08.561Z,10.69
2017-07-02T09:28:09.179Z,10.64
2017-07-02T09:29:09.840Z,10.69
2017-07-02T09:30:10.458Z,10.71
2017-07-02T09:31:11.075Z,10.71
2017-07-02T09:32:11.740Z,10.71
2017-07-02T09:33:12.362Z,10.63
2017-07-02T09:34:12.976Z,10.57
2017-07-02T09:35:13.594Z,10.61
2017-07-02T09:36:14.211Z,10.54
2017-07-02T09:37:14.915Z,10.61
2017-07-02T09:38:15.527Z,10.61
2017-07-02T09:39:16.177Z,10.72
2017-07-02T09:40:16.795Z,10.74
2017-07-02T09:41:17.439Z,10.84
2017-07-02T09:42:18.091Z,10.75
2017-07-02T09:43:18.719Z,10.89
2017-07-02T09:44:19.370Z,11.00
2017-07-02T09:45:19.988Z,10.99
2017-07-02T09:46:20.604Z,10.99
2017-07-02T09:47:21.298Z,10.97
2017-07-02T09:48:21.902Z,11.05
2017-07-02T09:49:22.519Z,11.11
2017-07-02T09:50:23.137Z,11.18
2017-07-02T09:51:23.753Z,11.22
2017-07-02T09:52:24.421Z,11.19
2017-07-02T09:53:25.036Z,11.29
2017-07-02T09:54:25.684Z,11.30
2017-07-02T09:55:26.286Z,11.37
2017-07-02T09:56:26.938Z,11.32
2017-07-02T09:57:27.570Z,11.41
2017-07-02T09:58:28.185Z,11.32
2017-07-02T09:59:28.803Z,11.37
2017-07-02T10:00:29.419Z,11.27
2017-07-02T10:01:30.067Z,11.33
2017-07-02T10:02:30.718Z,11.25
2017-07-02T10:03:31.335Z,11.25
2017-07-02T10:04:31.985Z,11.29
2017-07-02T10:05:32.604Z,11.22
2017-07-02T10:06:33.221Z,11.43
2017-07-02T10:07:33.896Z,11.33
2017-07-02T10:08:34.510Z,11.47
2017-07-02T10:09:35.167Z,11.51
2017-07-02T10:10:35.783Z,11.52
2017-07-02T10:11:36.407Z,11.48
2017-07-02T10:12:37.079Z,11.35
2017-07-02T10:13:37.694Z,11.32
2017-07-02T10:14:38.318Z,11.44
2017-07-02T10:15:38.932Z,11.45
2017-07-02T10:16:39.552Z,11.48
2017-07-02T10:17:40.245Z,11.52
2017-07-02T10:18:40.850Z,11.65
2017-07-02T10:19:41.502Z,11.62
2017-07-02T10:20:42.121Z,11.57
2017-07-02T10:21:42.738Z,11.59
2017-07-02T10:22:43.408Z,11.60
2017-07-02T10:23:44.025Z,11.60
2017-07-02T10:24:44.646Z,11.66
2017-07-02T10:25:45.260Z,11.65
2017-07-02T10:26:45.877Z,11.68
2017-07-02T10:27:46.575Z,11.80
2017-07-02T10:28:47.177Z,11.90
2017-07-02T10:29:47.819Z,11.94
2017-07-02T10:30:48.425Z,11.87
2017-07-02T10:31:49.068Z,11.97
2017-07-02T10:32:49.729Z,12.00
2017-07-02T10:33:50.350Z,11.99
2017-07-02T10:34:50.970Z,12.10
2017-07-02T10:35:51.615Z,12.07
2017-07-02T10:36:52.221Z,12.28
2017-07-02T10:37:52.887Z,12.31
2017-07-02T10:38:53.532Z,12.42
2017-07-02T10:39:54.136Z,12.50
2017-07-02T10:40:54.753Z,12.39
2017-07-02T10:41:55.406Z,12.29
2017-07-02T10:42:56.074Z,12.40
2017-07-02T10:43:56.692Z,12.42
2017-07-02T10:44:57.310Z,12.47
2017-07-02T10:45:57.952Z,12.57
2017-07-02T10:46:58.558Z,12.72
2017-07-02T10:47:59.233Z,12.80
2017-07-02T10:48:59.853Z,12.80
2017-07-02T10:50:00.467Z,12.80
2017-07-02T10:51:01.086Z,12.75
2017-07-02T10:52:01.708Z,12.86
2017-07-02T10:53:02.378Z,12.91
2017-07-02T10:54:02.997Z,13.09
2017-07-02T10:55:03.613Z,13.11
2017-07-02T10:56:04.230Z,13.27
2017-07-02T10:57:04.850Z,13.46
2017-07-02T10:58:05.525Z,13.60
2017-07-02T10:59:06.147Z,13.60
2017-07-02T11:00:06.801Z,13.83
2017-07-02T11:01:07.423Z,14.08
2017-07-02T11:02:08.043Z,14.33
2017-07-02T11:03:08.712Z,14.48
2017-07-02T11:04:09.360Z,14.43
2017-07-02T11:05:09.966Z,14.47
2017-07-02T11:06:10.620Z,14.50
2017-07-02T11:07:11.265Z,14.53
2017-07-02T11:08:11.965Z,14.18
2017-07-02T11:09:12.612Z,13.81
2017-07-02T11:10:13.215Z,13.63
2017-07-02T11:11:13.833Z,13.28
2017-07-02T11:12:14.450Z,13.22
2017-07-02T11:13:15.122Z,13.00
2017-07-02T11:14:15.739Z,12.86
2017-07-02T11:15:16.357Z,12.79
2017-07-02T11:16:16.982Z,12.72
2017-07-02T11:17:17.598Z,12.73
2017-07-02T11:18:18.268Z,12.78
2017-07-02T11:19:18.887Z,12.90
2017-07-02T11:20:19.504Z,12.86
2017-07-02T11:21:20.122Z,12.95
2017-07-02T11:22:20.742Z,12.95
2017-07-02T11:23:21.417Z,12.91
2017-07-02T11:24:22.032Z,12.93
2017-07-02T11:25:22.653Z,12.94
2017-07-02T11:26:23.271Z,12.85
2017-07-02T11:27:23.889Z,12.83
2017-07-02T11:28:24.561Z,12.90
2017-07-02T11:29:25.179Z,12.95
2017-07-02T11:30:25.797Z,12.87
2017-07-02T11:31:26.417Z,12.95
2017-07-02T11:32:27.034Z,12.94
2017-07-02T11:33:27.706Z,12.93
2017-07-02T11:34:28.360Z,13.09
2017-07-02T11:35:28.975Z,13.12
2017-07-02T11:36:29.594Z,13.12
2017-07-02T11:37:30.280Z,13.31
2017-07-02T11:38:30.962Z,13.53
2017-07-02T11:39:31.592Z,13.71
2017-07-02T11:40:32.223Z,13.75
2017-07-02T11:41:32.830Z,13.83
2017-07-02T11:42:33.450Z,13.89
2017-07-02T11:43:34.123Z,13.93
2017-07-02T11:44:34.739Z,14.05
2017-07-02T11:45:35.362Z,14.20
2017-07-02T11:46:35.981Z,14.26
2017-07-02T11:47:36.601Z,14.35
2017-07-02T11:48:37.303Z,14.63
2017-07-02T11:49:37.921Z,14.60
2017-07-02T11:50:38.542Z,14.36
2017-07-02T11:51:39.167Z,14.36
2017-07-02T11:52:39.788Z,14.28
2017-07-02T11:53:40.456Z,14.17
2017-07-02T11:54:41.113Z,13.92
2017-07-02T11:55:41.731Z,13.81
2017-07-02T11:56:42.384Z,13.89
2017-07-02T11:57:43.005Z,13.86
2017-07-02T11:58:43.679Z,13.89
2017-07-02T11:59:44.303Z,13.74
2017-07-02T12:00:44.919Z,13.67
2017-07-02T12:01:45.539Z,13.56
2017-07-02T12:02:46.157Z,13.49
2017-07-02T12:03:46.860Z,13.54
2017-07-02T12:04:47.506Z,13.60
2017-07-02T12:05:48.137Z,13.67
2017-07-02T12:06:48.743Z,13.79
2017-07-02T12:07:49.362Z,13.77
2017-07-02T12:08:50.031Z,13.79
2017-07-02T12:09:50.652Z,13.78
2017-07-02T12:10:51.274Z,13.75
2017-07-02T12:11:51.889Z,13.72
2017-07-02T12:12:52.509Z,13.44
2017-07-02T12:13:53.177Z,13.13
2017-07-02T12:14:53.859Z,13.11
2017-07-02T12:15:54.464Z,13.04
2017-07-02T12:16:55.084Z,13.01
2017-07-02T12:17:55.703Z,13.05
2017-07-02T12:18:56.371Z,13.01
2017-07-02T12:19:56.994Z,12.91
2017-07-02T12:20:57.611Z,12.76
2017-07-02T12:21:58.265Z,12.72
2017-07-02T12:22:58.885Z,12.57
2017-07-02T12:23:59.553Z,12.47
2017-07-02T12:25:00.179Z,12.37
2017-07-02T12:26:00.795Z,12.20
2017-07-02T12:27:01.422Z,12.28
2017-07-02T12:28:02.035Z,12.22
2017-07-02T12:29:02.702Z,12.12
2017-07-02T12:30:03.354Z,12.10
2017-07-02T12:31:03.974Z,12.22
2017-07-02T12:32:04.596Z,12.31
2017-07-02T12:33:05.212Z,12.36
2017-07-02T12:34:05.880Z,12.43
2017-07-02T12:35:06.507Z,12.54
2017-07-02T12:36:07.120Z,12.60
2017-07-02T12:37:07.737Z,12.75
2017-07-02T12:38:08.355Z,12.70
2017-07-02T12:39:09.057Z,12.79
2017-07-02T12:40:09.676Z,12.86
2017-07-02T12:41:10.325Z,12.93
2017-07-02T12:42:10.928Z,13.01
2017-07-02T12:43:11.547Z,13.15
2017-07-02T12:44:12.214Z,13.11
2017-07-02T12:45:12.832Z,13.16
2017-07-02T12:46:13.451Z,13.25
2017-07-02T12:47:14.096Z,13.30
2017-07-02T12:48:14.700Z,13.28
2017-07-02T12:49:15.371Z,13.31
2017-07-02T12:50:16.018Z,13.50
2017-07-02T12:51:16.621Z,13.49
2017-07-02T12:52:17.239Z,13.47
2017-07-02T12:53:17.859Z,13.56
2017-07-02T12:54:18.529Z,13.60
2017-07-02T12:55:19.146Z,13.68
2017-07-02T12:56:19.775Z,13.75
2017-07-02T12:57:20.387Z,13.90
2017-07-02T12:58:21.006Z,13.89
2017-07-02T12:59:21.675Z,13.89
2017-07-02T13:00:22.320Z,13.70
2017-07-02T13:01:22.973Z,13.46
2017-07-02T13:02:23.593Z,13.33
2017-07-02T13:03:24.214Z,13.11
2017-07-02T13:04:24.883Z,13.15
2017-07-02T13:05:25.501Z,13.15
2017-07-02T13:06:26.122Z,13.18
2017-07-02T13:07:26.740Z,13.44
2017-07-02T13:08:27.358Z,13.67
2017-07-02T13:09:28.089Z,13.65
2017-07-02T13:10:28.696Z,13.83
2017-07-02T13:11:29.313Z,13.81
2017-07-02T13:12:29.931Z,13.87
2017-07-02T13:13:30.555Z,13.87
2017-07-02T13:14:31.223Z,13.78
2017-07-02T13:15:31.843Z,13.68
2017-07-02T13:16:32.467Z,13.62
2017-07-02T13:17:33.084Z,13.57